Time;durP1;ratioP1;P1;durP2;ratioP2;P2;SDS_P1;SDS_P2;PMS_P1;PMS_P2;Temp;Humidity;BMP_temperature;BMP_pressure;BME280_temperature;BME280_humidity;BME280_pressure;Samples;Min_cycle;Max_cycle;Signal;HPM_P1;HPM_P2
2021/11/07 00:00:23;;;;;;;7.60;6.25;;;10.70;99.90;;;;;;5062954;28;20032;-80
2021/11/07 00:02:54;;;;;;;5.70;5.07;;;10.70;99.90;;;;;;5051757;28;20071;-78
2021/11/07 00:05:30;;;;;;;6.18;4.60;;;10.70;99.90;;;;;;5060120;28;20032;-76
2021/11/07 00:10:39;;;;;;;5.88;4.65;;;10.70;99.90;;;;;;5052198;28;20485;-77
2021/11/07 00:13:22;;;;;;;7.85;6.72;;;10.70;99.90;;;;;;5056475;28;20053;-80
2021/11/07 00:15:48;;;;;;;9.43;7.60;;;10.70;99.90;;;;;;5051491;28;20420;-80
2021/11/07 00:18:18;;;;;;;13.50;9.43;;;10.60;99.90;;;;;;5053887;28;20019;-79
2021/11/07 00:20:55;;;;;;;8.35;6.93;;;10.70;99.90;;;;;;5072906;28;20028;-77
2021/11/07 00:23:35;;;;;;;15.82;11.45;;;10.60;99.90;;;;;;5057456;28;20020;-80
2021/11/07 00:28:44;;;;;;;8.52;6.78;;;10.70;99.90;;;;;;5075174;28;20028;-76
2021/11/07 00:33:55;;;;;;;6.85;5.50;;;10.60;99.90;;;;;;5074621;28;20029;-75
2021/11/07 00:46:42;;;;;;;5.10;4.60;;;10.60;99.90;;;;;;5075204;28;20079;-72
2021/11/07 00:49:14;;;;;;;5.70;5.13;;;10.70;99.90;;;;;;5074124;28;20023;-77
2021/11/07 00:57:03;;;;;;;5.63;4.32;;;10.60;99.90;;;;;;5074767;28;20031;-75
2021/11/07 01:02:06;;;;;;;4.53;4.05;;;10.70;99.90;;;;;;5073967;28;20059;-72
2021/11/07 01:04:32;;;;;;;5.10;4.60;;;10.60;99.90;;;;;;5074648;28;20029;-72
2021/11/07 01:06:58;;;;;;;5.15;4.68;;;10.60;99.90;;;;;;5074417;28;20387;-78
2021/11/07 01:09:23;;;;;;;6.80;4.85;;;10.60;99.90;;;;;;5074197;28;20028;-72
2021/11/07 01:11:49;;;;;;;5.18;4.68;;;10.60;99.90;;;;;;5056189;28;20082;-77
2021/11/07 01:14:15;;;;;;;7.78;5.60;;;10.60;99.90;;;;;;5074459;28;20052;-73
2021/11/07 01:16:42;;;;;;;4.90;4.50;;;10.60;99.90;;;;;;5073525;28;20476;-72
2021/11/07 01:19:09;;;;;;;5.47;4.68;;;10.70;99.90;;;;;;5074232;28;20391;-76
2021/11/07 01:21:39;;;;;;;7.75;6.72;;;10.70;99.90;;;;;;5074421;28;20029;-78
2021/11/07 01:24:10;;;;;;;5.88;5.38;;;10.70;99.90;;;;;;5055615;28;20028;-73
2021/11/07 01:26:42;;;;;;;6.10;5.45;;;10.70;99.90;;;;;;5056162;28;20029;-75
2021/11/07 01:31:39;;;;;;;;;;;10.70;99.90;;;;;;5074529;28;20040;-76
2021/11/07 01:34:07;;;;;;;6.32;5.72;;;10.70;99.90;;;;;;5074151;28;19936;-81
2021/11/07 01:36:39;;;;;;;6.78;5.95;;;10.80;99.90;;;;;;5055389;28;20407;-77
2021/11/07 01:42:00;;;;;;;5.70;5.20;;;10.80;99.90;;;;;;5073780;28;20037;-76
2021/11/07 01:44:37;;;;;;;6.45;5.93;;;10.80;99.90;;;;;;5073365;28;20537;-73
2021/11/07 01:47:03;;;;;;;11.00;6.15;;;10.80;99.90;;;;;;5055778;28;20048;-81
2021/11/07 01:49:35;;;;;;;7.05;6.18;;;10.80;99.90;;;;;;5073903;28;20069;-80
2021/11/07 01:52:04;;;;;;;6.65;6.03;;;10.80;99.90;;;;;;5072947;28;20107;-79
2021/11/07 01:54:46;;;;;;;6.72;5.90;;;10.90;99.90;;;;;;5055635;28;20103;-78
2021/11/07 01:57:12;;;;;;;7.50;6.78;;;10.90;99.90;;;;;;5073551;28;20016;-73
2021/11/07 01:59:51;;;;;;;7.72;7.03;;;10.90;99.90;;;;;;5054940;28;20392;-76
2021/11/07 02:02:16;;;;;;;8.05;7.15;;;10.90;99.90;;;;;;5055380;28;20021;-75
2021/11/07 02:04:43;;;;;;;8.65;7.72;;;10.90;99.90;;;;;;5054649;28;20043;-75
2021/11/07 02:07:09;;;;;;;8.48;7.55;;;10.90;99.90;;;;;;5055115;28;20027;-76
2021/11/07 02:09:36;;;;;;;8.52;7.55;;;10.90;99.90;;;;;;5055557;28;20032;-77
2021/11/07 02:12:02;;;;;;;7.40;6.70;;;10.90;99.90;;;;;;5070874;28;20020;-76
2021/11/07 02:14:28;;;;;;;8.75;7.88;;;10.90;99.90;;;;;;5055670;28;20031;-78
2021/11/07 02:16:53;;;;;;;8.35;7.45;;;10.90;99.90;;;;;;5063019;28;20262;-73
2021/11/07 02:19:19;;;;;;;9.10;7.88;;;10.90;99.90;;;;;;5052475;28;20028;-78
2021/11/07 02:21:46;;;;;;;9.30;8.43;;;10.90;99.90;;;;;;5052998;28;20028;-74
2021/11/07 02:24:18;;;;;;;9.00;8.05;;;11.00;99.90;;;;;;5034841;28;20159;-71
2021/11/07 02:26:49;;;;;;;8.40;7.60;;;10.90;99.90;;;;;;5052376;28;20033;-72
2021/11/07 02:29:15;;;;;;;9.15;8.25;;;10.90;99.90;;;;;;5046291;28;20358;-75
2021/11/07 02:31:40;;;;;;;10.68;9.60;;;10.90;99.90;;;;;;5072937;28;20023;-76
2021/11/07 02:34:06;;;;;;;12.70;10.27;;;10.90;99.90;;;;;;5072213;28;20021;-74
2021/11/07 02:36:32;;;;;;;10.00;9.02;;;10.90;99.90;;;;;;5072948;28;20021;-73
2021/11/07 02:38:57;;;;;;;10.57;8.95;;;10.90;99.90;;;;;;5054680;28;20118;-71
2021/11/07 02:41:23;;;;;;;10.63;9.60;;;10.90;99.90;;;;;;5071293;28;20045;-75
2021/11/07 02:43:52;;;;;;;9.70;8.70;;;10.90;99.90;;;;;;5071737;28;20039;-71
2021/11/07 02:46:18;;;;;;;10.82;9.88;;;11.00;99.90;;;;;;5052080;28;20067;-77
2021/11/07 02:48:58;;;;;;;9.68;8.77;;;11.00;99.90;;;;;;5053090;28;20051;-74
2021/11/07 02:51:32;;;;;;;12.90;9.02;;;11.00;99.90;;;;;;5071977;28;20036;-73
2021/11/07 02:53:59;;;;;;;10.10;9.10;;;11.00;99.90;;;;;;5071586;28;20016;-73
2021/11/07 02:56:25;;;;;;;11.20;9.82;;;11.00;99.90;;;;;;5072889;28;20029;-75
2021/11/07 02:58:50;;;;;;;10.70;9.60;;;11.00;99.90;;;;;;5072529;28;20031;-78
2021/11/07 03:01:22;;;;;;;10.63;9.60;;;11.00;99.90;;;;;;5071778;28;20036;-72
2021/11/07 03:03:49;;;;;;;10.82;9.82;;;11.00;99.90;;;;;;5072365;28;20021;-74
2021/11/07 03:06:15;;;;;;;10.32;8.27;;;11.00;99.90;;;;;;5072167;28;20025;-74
2021/11/07 03:08:43;;;;;;;10.32;9.23;;;11.00;99.90;;;;;;5071406;28;20376;-74
2021/11/07 03:11:11;;;;;;;10.52;9.45;;;11.10;99.90;;;;;;5054334;28;20027;-75
2021/11/07 03:13:38;;;;;;;11.25;9.85;;;11.10;99.90;;;;;;5072370;28;20021;-72
2021/11/07 03:16:07;;;;;;;11.38;10.13;;;11.10;99.90;;;;;;5071425;28;20032;-77
2021/11/07 03:18:35;;;;;;;11.65;10.45;;;11.10;99.90;;;;;;5072145;28;20520;-72
2021/11/07 03:21:01;;;;;;;15.45;12.75;;;11.10;99.90;;;;;;5072042;28;20120;-72
2021/11/07 03:23:26;;;;;;;14.23;12.75;;;11.10;99.90;;;;;;5053715;28;20470;-72
2021/11/07 03:26:01;;;;;;;12.02;10.82;;;11.10;99.90;;;;;;5072019;28;20438;-72
2021/11/07 03:28:28;;;;;;;14.43;11.88;;;11.10;99.90;;;;;;5072086;28;20021;-75
2021/11/07 03:31:10;;;;;;;12.73;11.43;;;11.20;99.90;;;;;;5071656;28;20044;-75
2021/11/07 03:33:46;;;;;;;11.93;10.63;;;11.20;99.90;;;;;;5054177;28;20461;-74
2021/11/07 03:36:17;;;;;;;12.15;10.75;;;11.20;99.90;;;;;;5071329;28;20384;-76
2021/11/07 03:38:44;;;;;;;12.07;10.75;;;11.20;99.90;;;;;;5072040;28;20373;-76
2021/11/07 03:41:10;;;;;;;18.35;13.60;;;11.20;99.90;;;;;;5071753;28;20127;-77
2021/11/07 03:43:36;;;;;;;13.68;11.70;;;11.20;99.90;;;;;;5071275;28;20024;-73
2021/11/07 03:46:02;;;;;;;13.35;11.95;;;11.30;99.90;;;;;;5071501;28;20029;-74
2021/11/07 03:48:28;;;;;;;13.50;11.73;;;11.20;99.90;;;;;;5072123;28;20017;-75
2021/11/07 03:50:54;;;;;;;16.30;13.05;;;11.30;99.90;;;;;;5071453;28;20027;-72
2021/11/07 03:53:20;;;;;;;21.27;15.38;;;11.30;99.90;;;;;;5074770;28;20043;-72
2021/11/07 03:55:46;;;;;;;16.45;12.52;;;11.30;99.90;;;;;;5075948;28;20033;-72
2021/11/07 03:58:11;;;;;;;17.83;12.73;;;11.30;99.90;;;;;;5075123;28;20017;-76
2021/11/07 04:00:38;;;;;;;17.42;12.93;;;11.30;99.90;;;;;;5075878;28;20485;-74
2021/11/07 04:03:05;;;;;;;12.20;10.77;;;11.30;99.90;;;;;;5075697;28;20017;-74
2021/11/07 04:05:31;;;;;;;20.70;14.32;;;11.30;99.90;;;;;;5075126;28;20087;-74
2021/11/07 04:07:57;;;;;;;15.00;10.95;;;11.30;99.90;;;;;;5057444;28;20507;-75
2021/11/07 04:10:24;;;;;;;30.80;15.32;;;11.20;99.90;;;;;;5076234;28;20047;-74
2021/11/07 04:12:51;;;;;;;19.20;10.38;;;11.20;99.90;;;;;;5075170;28;20020;-76
2021/11/07 04:15:17;;;;;;;18.63;10.10;;;11.20;99.90;;;;;;5075381;28;20059;-74
2021/11/07 04:17:43;;;;;;;23.15;11.40;;;11.20;99.90;;;;;;5057356;28;20052;-76
2021/11/07 04:20:09;;;;;;;32.70;13.40;;;11.10;99.90;;;;;;5074686;28;20028;-73
2021/11/07 04:22:35;;;;;;;22.08;9.35;;;11.10;99.90;;;;;;5075473;28;20034;-73
2021/11/07 04:25:01;;;;;;;17.45;6.22;;;11.10;99.90;;;;;;5056688;28;20127;-74
2021/11/07 04:27:26;;;;;;;15.00;6.38;;;11.10;99.90;;;;;;5057429;28;20025;-73
2021/11/07 04:29:52;;;;;;;14.80;4.97;;;11.00;99.90;;;;;;5075329;28;20020;-75
2021/11/07 04:32:18;;;;;;;39.30;14.50;;;11.00;99.90;;;;;;5074246;28;20056;-74
2021/11/07 04:34:44;;;;;;;18.73;8.77;;;11.00;99.90;;;;;;5074981;28;20070;-73
2021/11/07 04:37:09;;;;;;;61.95;27.45;;;11.00;99.90;;;;;;5074962;28;20500;-73
2021/11/07 04:39:35;;;;;;;35.55;13.35;;;10.90;99.90;;;;;;5074532;28;20024;-73
2021/11/07 04:42:01;;;;;;;15.40;6.55;;;10.90;99.90;;;;;;5074793;28;20052;-73
2021/11/07 04:44:28;;;;;;;15.05;7.13;;;10.90;99.90;;;;;;5075123;28;20016;-73
2021/11/07 04:46:55;;;;;;;17.17;7.47;;;11.00;99.90;;;;;;5056377;28;20052;-73
2021/11/07 04:49:21;;;;;;;14.85;5.10;;;10.90;99.90;;;;;;5075103;28;20482;-73
2021/11/07 04:51:47;;;;;;;14.80;4.65;;;10.90;99.90;;;;;;5056860;28;20111;-73
2021/11/07 04:54:12;;;;;;;12.63;4.43;;;10.90;99.90;;;;;;5073948;28;20104;-73
2021/11/07 04:56:38;;;;;;;9.50;3.33;;;10.90;99.90;;;;;;5074758;28;20025;-73
2021/11/07 04:59:04;;;;;;;13.57;4.78;;;10.90;99.90;;;;;;5074730;28;20063;-72
2021/11/07 05:01:30;;;;;;;10.15;3.83;;;10.90;99.90;;;;;;5074035;28;20104;-74
2021/11/07 05:03:56;;;;;;;11.73;3.88;;;10.80;99.90;;;;;;5056125;28;20054;-72
2021/11/07 05:06:22;;;;;;;8.20;4.32;;;10.80;99.90;;;;;;5074701;28;20035;-72
2021/11/07 05:08:48;;;;;;;12.45;4.50;;;10.90;99.90;;;;;;5055669;28;20009;-72
2021/11/07 05:11:14;;;;;;;9.75;3.20;;;10.90;99.90;;;;;;5074546;28;20051;-72
2021/11/07 05:13:40;;;;;;;11.20;3.67;;;10.90;99.90;;;;;;5056614;28;20357;-72
2021/11/07 05:16:05;;;;;;;16.90;5.28;;;10.80;99.90;;;;;;5073602;28;20028;-73
2021/11/07 05:18:31;;;;;;;13.93;4.53;;;10.80;99.90;;;;;;5074350;28;20534;-73
2021/11/07 05:20:58;;;;;;;15.90;3.90;;;10.80;99.90;;;;;;5074352;28;21045;-72
2021/11/07 05:23:24;;;;;;;14.10;4.22;;;10.80;99.90;;;;;;5074029;28;20012;-73
2021/11/07 05:25:49;;;;;;;8.30;3.13;;;10.80;99.90;;;;;;5074181;28;20170;-74
2021/11/07 05:28:15;;;;;;;14.35;3.72;;;10.80;99.90;;;;;;5074074;28;20388;-72
2021/11/07 05:30:42;;;;;;;10.43;3.17;;;10.80;99.90;;;;;;5055446;28;20053;-73
2021/11/07 05:33:08;;;;;;;13.75;3.90;;;10.70;99.90;;;;;;5073971;28;20021;-76
2021/11/07 05:35:34;;;;;;;8.48;3.08;;;10.70;99.90;;;;;;5073615;28;20024;-74
2021/11/07 05:38:00;;;;;;;12.65;3.67;;;10.70;99.90;;;;;;5073756;28;20035;-75
2021/11/07 05:40:25;;;;;;;9.57;3.13;;;10.70;99.90;;;;;;5074227;28;20024;-75
2021/11/07 05:42:51;;;;;;;9.32;3.25;;;10.70;99.90;;;;;;5073177;28;20048;-76
2021/11/07 05:45:17;;;;;;;14.23;3.80;;;10.70;99.90;;;;;;5073762;28;20025;-77
2021/11/07 05:47:44;;;;;;;9.20;3.08;;;10.70;99.90;;;;;;5073671;28;20028;-75
2021/11/07 05:50:10;;;;;;;10.20;3.53;;;10.60;99.90;;;;;;5055159;28;20021;-75
2021/11/07 05:52:36;;;;;;;16.00;3.63;;;10.60;99.90;;;;;;5073839;28;20028;-75
2021/11/07 05:55:03;;;;;;;12.10;3.50;;;10.60;99.90;;;;;;5073465;28;20032;-75
2021/11/07 05:57:29;;;;;;;10.52;2.88;;;10.50;99.90;;;;;;5073009;28;20055;-75
2021/11/07 05:59:55;;;;;;;8.88;2.88;;;10.50;99.90;;;;;;5073808;28;20051;-75
2021/11/07 06:02:20;;;;;;;16.70;3.75;;;10.50;99.90;;;;;;5055731;28;20021;-74
2021/11/07 06:04:46;;;;;;;9.50;3.50;;;10.50;99.90;;;;;;5072735;28;20033;-75
2021/11/07 06:07:13;;;;;;;12.13;3.63;;;10.50;99.90;;;;;;5055332;28;20025;-76
2021/11/07 06:09:39;;;;;;;10.82;3.50;;;10.40;99.90;;;;;;5073397;28;20032;-74
2021/11/07 06:12:05;;;;;;;12.23;3.15;;;10.40;99.90;;;;;;5054674;28;20021;-73
2021/11/07 06:14:30;;;;;;;9.88;3.05;;;10.40;99.90;;;;;;5054733;28;20021;-74
2021/11/07 06:16:56;;;;;;;14.95;3.50;;;10.40;99.90;;;;;;5072639;28;20020;-74
2021/11/07 06:19:21;;;;;;;17.90;4.20;;;10.30;99.90;;;;;;5072866;28;20024;-73
2021/11/07 06:21:47;;;;;;;12.85;3.53;;;10.30;99.90;;;;;;5073117;28;20029;-72
2021/11/07 06:24:16;;;;;;;6.18;2.70;;;10.10;99.90;;;;;;5073189;28;20082;-73
2021/11/07 06:26:42;;;;;;;11.18;3.17;;;10.10;99.90;;;;;;5054282;28;20032;-72
2021/11/07 06:29:08;;;;;;;10.65;2.97;;;10.00;99.90;;;;;;5072874;28;20028;-72
2021/11/07 06:31:33;;;;;;;7.88;2.70;;;10.00;99.90;;;;;;5072985;28;20021;-72
2021/11/07 06:33:59;;;;;;;8.80;3.28;;;9.90;99.90;;;;;;5072085;28;20535;-73
2021/11/07 06:36:25;;;;;;;8.32;2.60;;;9.90;99.90;;;;;;5073156;28;20028;-73
2021/11/07 06:38:50;;;;;;;9.43;3.03;;;9.90;99.90;;;;;;5072195;28;20464;-73
2021/11/07 06:41:16;;;;;;;9.32;3.00;;;9.80;99.90;;;;;;5072497;28;20123;-73
2021/11/07 06:43:42;;;;;;;13.32;3.95;;;9.80;99.90;;;;;;5072794;28;20082;-72
2021/11/07 06:46:07;;;;;;;13.93;3.85;;;9.70;99.90;;;;;;5053961;28;20082;-73
2021/11/07 06:48:34;;;;;;;15.65;4.05;;;9.70;99.90;;;;;;5072588;28;20024;-73
2021/11/07 06:50:59;;;;;;;9.55;3.30;;;9.60;99.90;;;;;;5072468;28;20048;-73
2021/11/07 06:53:25;;;;;;;9.15;2.95;;;9.60;99.90;;;;;;5072062;28;20071;-73
2021/11/07 06:55:53;;;;;;;11.25;3.25;;;9.60;99.90;;;;;;5072555;28;20552;-73
2021/11/07 06:58:18;;;;;;;12.15;4.15;;;9.50;99.90;;;;;;5072279;28;20017;-72
2021/11/07 07:00:44;;;;;;;10.55;3.30;;;9.50;99.90;;;;;;5071808;28;20574;-73
2021/11/07 07:03:09;;;;;;;11.65;3.78;;;9.50;99.90;;;;;;5072322;28;20024;-74
2021/11/07 07:05:35;;;;;;;6.72;2.95;;;9.50;99.90;;;;;;5054290;28;20391;-73
2021/11/07 07:08:18;;;;;;;11.70;3.03;;;9.50;99.90;;;;;;5071464;28;20020;-72
2021/11/07 07:10:51;;;;;;;9.18;3.22;;;9.40;99.90;;;;;;5072317;28;20024;-71
2021/11/07 07:13:25;;;;;;;10.82;3.25;;;9.40;99.90;;;;;;5072208;28;20020;-72
2021/11/07 07:16:08;;;;;;;13.05;3.58;;;9.40;99.90;;;;;;5071604;28;20069;-73
2021/11/07 07:18:40;;;;;;;15.88;3.55;;;9.40;99.90;;;;;;5072139;28;20096;-74
2021/11/07 07:26:37;;;;;;;11.55;3.65;;;9.30;99.90;;;;;;5071730;28;20064;-72
2021/11/07 07:29:34;;;;;;;9.43;2.97;;;9.30;99.90;;;;;;5071288;28;20013;-73
2021/11/07 07:34:24;;;;;;;10.25;2.95;;;9.40;99.90;;;;;;5069594;28;20508;-73
2021/11/07 07:36:50;;;;;;;9.13;3.45;;;9.50;99.90;;;;;;5039229;28;20021;-75
2021/11/07 07:39:16;;;;;;;11.55;2.75;;;9.50;99.90;;;;;;5054031;28;20052;-73
2021/11/07 07:41:42;;;;;;;9.63;2.80;;;9.50;99.90;;;;;;5051770;28;20108;-78
2021/11/07 07:44:09;;;;;;;12.40;3.20;;;9.50;99.90;;;;;;5058775;28;20421;-74
2021/11/07 07:46:44;;;;;;;10.00;3.45;;;9.40;99.90;;;;;;5071336;28;20036;-76
2021/11/07 07:49:12;;;;;;;9.23;3.13;;;9.40;99.90;;;;;;5051206;28;20606;-77
2021/11/07 07:51:38;;;;;;;11.63;3.47;;;9.40;99.90;;;;;;5041043;28;20029;-74
2021/11/07 07:54:05;;;;;;;7.70;2.83;;;9.40;99.90;;;;;;5071107;28;20354;-79
2021/11/07 07:56:33;;;;;;;7.70;2.90;;;9.30;99.90;;;;;;5053130;28;20106;-80
2021/11/07 07:59:00;;;;;;;7.40;2.58;;;9.30;99.90;;;;;;5069230;28;20476;-77
2021/11/07 08:01:27;;;;;;;13.88;3.80;;;9.30;99.90;;;;;;5046637;28;20066;-82
2021/11/07 08:03:53;;;;;;;9.90;3.47;;;9.30;99.90;;;;;;5047110;28;20032;-81
2021/11/07 08:06:19;;;;;;;12.18;4.72;;;9.30;99.90;;;;;;5070918;28;20041;-81
2021/11/07 08:08:46;;;;;;;10.20;3.35;;;9.30;99.90;;;;;;5033304;28;20574;-77
2021/11/07 08:11:11;;;;;;;15.32;3.28;;;9.30;99.90;;;;;;5050616;28;20032;-79
2021/11/07 08:13:37;;;;;;;12.73;3.70;;;9.30;99.90;;;;;;5051508;28;20017;-79
2021/11/07 08:16:03;;;;;;;12.80;3.30;;;9.30;99.90;;;;;;5057518;28;20090;-78
2021/11/07 08:18:30;;;;;;;12.35;3.58;;;9.40;99.90;;;;;;5038767;28;20120;-74
2021/11/07 08:20:55;;;;;;;12.80;4.10;;;9.50;99.90;;;;;;5071227;28;20020;-71
2021/11/07 08:23:23;;;;;;;13.43;4.32;;;9.70;99.90;;;;;;5026954;28;20021;-83
2021/11/07 08:25:49;;;;;;;14.88;3.65;;;9.90;99.90;;;;;;5033022;28;20124;-77
2021/11/07 08:28:18;;;;;;;15.85;4.25;;;10.00;99.90;;;;;;5051507;28;20025;-76
2021/11/07 08:30:45;;;;;;;13.52;3.55;;;10.00;99.90;;;;;;5051442;28;20071;-77
2021/11/07 08:33:11;;;;;;;12.43;4.22;;;10.00;99.90;;;;;;5050470;28;20026;-79
2021/11/07 08:35:40;;;;;;;9.20;3.03;;;10.10;99.90;;;;;;5060554;28;20105;-81
2021/11/07 08:38:33;;;;;;;8.98;2.83;;;9.90;99.90;;;;;;5046813;28;20055;-77
2021/11/07 08:40:59;;;;;;;11.65;2.75;;;9.80;99.90;;;;;;5054155;28;20543;-74
2021/11/07 09:02:52;;;;;;;21.83;4.72;;;9.50;99.90;;;;;;5069021;28;20158;-74
2021/11/07 09:05:33;;;;;;;12.43;3.35;;;9.40;99.90;;;;;;5056468;28;20447;-83
2021/11/07 09:08:12;;;;;;;17.90;3.92;;;9.50;99.90;;;;;;5072554;28;20473;-74
2021/11/07 09:10:37;;;;;;;15.27;4.53;;;9.50;99.90;;;;;;5055986;28;20043;-73
2021/11/07 09:13:06;;;;;;;9.35;3.33;;;9.60;99.90;;;;;;5056426;28;20024;-79
2021/11/07 09:15:34;;;;;;;18.83;3.88;;;9.70;99.90;;;;;;5073664;28;20035;-86
2021/11/07 09:18:00;;;;;;;11.98;3.63;;;9.90;99.90;;;;;;5055941;28;20032;-78
2021/11/07 09:20:43;;;;;;;14.32;3.60;;;10.10;99.90;;;;;;5072850;28;20021;-76
2021/11/07 09:23:16;;;;;;;11.18;3.58;;;10.20;99.90;;;;;;5073192;28;20047;-70
2021/11/07 09:26:14;;;;;;;16.83;3.15;;;10.40;99.90;;;;;;5073920;28;20048;-75
2021/11/07 09:31:07;;;;;;;9.85;4.03;;;10.50;99.90;;;;;;5072418;28;20070;-77
2021/11/07 09:33:45;;;;;;;11.30;3.45;;;10.50;99.90;;;;;;5074135;28;20403;-71
2021/11/07 09:36:17;;;;;;;8.60;2.97;;;10.40;99.90;;;;;;5053161;28;20040;-72
2021/11/07 09:38:52;;;;;;;13.35;4.25;;;10.40;99.90;;;;;;5045015;28;20017;-74
2021/11/07 09:44:13;;;;;;;13.07;3.50;;;10.30;99.90;;;;;;5052399;28;20063;-72
2021/11/07 09:46:42;;;;;;;13.35;3.38;;;10.30;99.90;;;;;;5052148;28;20119;-72
2021/11/07 09:49:16;;;;;;;14.80;3.65;;;10.40;99.90;;;;;;5053069;28;20017;-72
2021/11/07 09:51:46;;;;;;;14.85;4.07;;;10.50;99.90;;;;;;5053825;28;20029;-72
2021/11/07 09:54:14;;;;;;;12.90;4.22;;;10.50;99.90;;;;;;5053594;28;20437;-75
2021/11/07 09:56:45;;;;;;;11.43;3.42;;;10.60;99.90;;;;;;5050775;28;20043;-75
2021/11/07 09:59:12;;;;;;;16.70;4.32;;;10.70;99.90;;;;;;5053418;28;20016;-74
2021/11/07 10:01:38;;;;;;;16.83;4.65;;;10.80;99.90;;;;;;5046300;28;20485;-72
2021/11/07 10:04:04;;;;;;;15.02;4.15;;;10.80;99.90;;;;;;5034883;28;20021;-76
2021/11/07 10:06:41;;;;;;;11.77;3.40;;;10.80;99.90;;;;;;5049047;28;20096;-79
2021/11/07 10:09:07;;;;;;;11.68;4.00;;;10.70;99.90;;;;;;5052740;28;20027;-80
2021/11/07 10:11:36;;;;;;;10.88;3.85;;;10.70;99.90;;;;;;5052157;28;20025;-78
2021/11/07 10:14:13;;;;;;;17.58;4.45;;;10.80;99.90;;;;;;5050210;28;20029;-79
2021/11/07 10:16:45;;;;;;;13.68;3.90;;;10.80;99.90;;;;;;5050885;28;20033;-73
2021/11/07 10:19:34;;;;;;;15.45;3.75;;;11.00;99.90;;;;;;5047851;28;20030;-75
2021/11/07 10:22:00;;;;;;;8.48;3.20;;;11.20;99.90;;;;;;5046608;28;20495;-75
2021/11/07 10:24:35;;;;;;;20.58;4.07;;;11.40;99.90;;;;;;5050148;28;20025;-73
2021/11/07 10:27:10;;;;;;;13.20;3.67;;;11.50;99.90;;;;;;5050023;28;20028;-75
2021/11/07 10:29:45;;;;;;;18.20;4.45;;;11.60;99.90;;;;;;5051723;28;20079;-74
2021/11/07 10:32:25;;;;;;;7.85;3.10;;;11.70;99.90;;;;;;5046214;28;20088;-73
2021/11/07 10:38:25;;;;;;;10.80;2.72;;;11.70;99.90;;;;;;5024806;28;20036;-74
2021/11/07 10:41:07;;;;;;;13.98;3.45;;;11.70;99.90;;;;;;5050831;28;20025;-73
2021/11/07 10:46:17;;;;;;;12.82;3.20;;;11.90;99.90;;;;;;5058318;28;20399;-73
2021/11/07 10:54:21;;;;;;;15.80;3.65;;;12.00;99.90;;;;;;5060654;28;20035;-73
2021/11/07 10:57:15;;;;;;;18.50;4.35;;;12.00;99.90;;;;;;5054968;28;20051;-77
2021/11/07 11:00:01;;;;;;;13.10;3.65;;;12.00;99.90;;;;;;5053022;28;20031;-73
2021/11/07 11:02:39;;;;;;;15.82;3.83;;;12.00;99.90;;;;;;5020674;28;20053;-78
2021/11/07 11:05:13;;;;;;;17.55;4.57;;;12.10;99.90;;;;;;5068366;28;20032;-79
2021/11/07 11:08:16;;;;;;;11.55;3.53;;;12.10;99.90;;;;;;5043443;28;20469;-79
2021/11/07 11:13:43;;;;;;;13.90;3.45;;;12.00;99.90;;;;;;5050979;28;20386;-73
2021/11/07 11:16:55;;;;;;;12.30;3.40;;;11.90;99.90;;;;;;5055275;28;20089;-72
2021/11/07 11:24:36;;;;;;;12.25;3.67;;;11.60;99.90;;;;;;5072562;28;20070;-75
2021/11/07 11:32:41;;;;;;;9.60;3.05;;;12.00;99.90;;;;;;5071692;28;20038;-74
2021/11/07 11:35:04;;;;;;;10.35;3.00;;;12.20;99.90;;;;;;5068771;28;20106;-71
2021/11/07 11:40:06;;;;;;;12.57;3.70;;;12.20;99.90;;;;;;5070076;28;20481;-73
2021/11/07 11:42:41;;;;;;;15.88;4.38;;;12.20;99.90;;;;;;5045649;28;20509;-78
2021/11/07 11:45:10;;;;;;;19.17;4.38;;;12.20;99.90;;;;;;5063000;28;20072;-75
2021/11/07 11:54:13;;;;;;;16.52;5.35;;;12.20;99.90;;;;;;5070329;28;20036;-71
2021/11/07 11:56:53;;;;;;;8.68;3.00;;;12.20;99.90;;;;;;5033156;28;20059;-84
2021/11/07 11:59:51;;;;;;;13.18;3.63;;;12.10;99.90;;;;;;5061103;28;20028;-75
2021/11/07 12:02:35;;;;;;;8.82;2.70;;;12.10;99.90;;;;;;5033367;28;20478;-79
2021/11/07 12:05:12;;;;;;;11.98;3.05;;;12.10;99.90;;;;;;5033380;28;20021;-76
2021/11/07 12:07:49;;;;;;;11.65;2.95;;;12.10;99.90;;;;;;5069960;28;20082;-74
2021/11/07 12:10:33;;;;;;;8.23;2.50;;;12.00;99.90;;;;;;5071355;28;20477;-73
2021/11/07 12:13:02;;;;;;;8.68;2.47;;;11.90;99.90;;;;;;5056675;28;20029;-74
2021/11/07 12:15:50;;;;;;;7.93;2.70;;;11.80;99.90;;;;;;5060660;28;20354;-78
2021/11/07 12:18:17;;;;;;;9.05;2.78;;;11.60;99.90;;;;;;5075193;28;20047;-77
2021/11/07 12:20:44;;;;;;;11.23;3.33;;;11.50;99.90;;;;;;5057348;28;20028;-77
2021/11/07 12:23:12;;;;;;;11.75;4.05;;;11.40;99.90;;;;;;5073701;28;20380;-77
2021/11/07 12:25:38;;;;;;;10.02;3.35;;;11.30;99.90;;;;;;5072448;28;20477;-76
2021/11/07 12:28:04;;;;;;;14.30;4.05;;;11.20;99.90;;;;;;5073887;28;20024;-76
2021/11/07 12:30:31;;;;;;;10.48;3.47;;;11.20;99.90;;;;;;5055994;28;20534;-76
2021/11/07 12:33:08;;;;;;;9.88;3.13;;;11.10;99.90;;;;;;5056180;28;20020;-73
2021/11/07 12:35:52;;;;;;;10.93;3.58;;;11.00;99.90;;;;;;5056477;28;20050;-74
2021/11/07 12:41:21;;;;;;;11.55;3.05;;;10.90;99.90;;;;;;5073362;28;20055;-78
2021/11/07 12:44:06;;;;;;;8.73;2.90;;;10.80;99.90;;;;;;5074196;28;20032;-77
2021/11/07 12:49:16;;;;;;;13.95;3.78;;;10.90;99.90;;;;;;5073596;28;20029;-77
2021/11/07 12:51:54;;;;;;;11.32;3.42;;;10.90;99.90;;;;;;5073872;28;20025;-76
2021/11/07 12:54:24;;;;;;;14.05;3.30;;;10.90;99.90;;;;;;5055524;28;20465;-76
2021/11/07 12:57:28;;;;;;;16.55;3.53;;;10.80;99.90;;;;;;5054018;28;20017;-76
2021/11/07 12:59:57;;;;;;;8.80;4.13;;;10.90;99.90;;;;;;5068599;28;20476;-73
2021/11/07 13:02:31;;;;;;;14.50;3.78;;;11.00;99.90;;;;;;5072284;28;20023;-77
2021/11/07 13:05:39;;;;;;;12.50;3.13;;;11.10;99.90;;;;;;5055547;28;20052;-78
2021/11/07 13:08:06;;;;;;;13.88;3.58;;;11.20;99.90;;;;;;5073359;28;20526;-76
2021/11/07 13:21:44;;;;;;;20.27;4.82;;;11.30;99.90;;;;;;5071482;28;20066;-79
2021/11/07 13:35:12;;;;;;;17.23;4.90;;;11.60;99.90;;;;;;5068121;28;20025;-76
2021/11/07 13:37:49;;;;;;;13.52;3.80;;;11.60;99.90;;;;;;5066561;28;20033;-72
2021/11/07 13:40:32;;;;;;;15.10;4.13;;;11.60;99.90;;;;;;5070825;28;20028;-75
2021/11/07 13:43:20;;;;;;;16.05;4.30;;;11.50;99.90;;;;;;5061132;28;20048;-76
2021/11/07 13:45:50;;;;;;;18.05;4.35;;;11.40;99.90;;;;;;5062821;28;20633;-72
2021/11/07 13:48:22;;;;;;;21.15;4.95;;;11.30;99.90;;;;;;5071786;28;20102;-75
2021/11/07 13:50:48;;;;;;;13.25;3.80;;;11.20;99.90;;;;;;5073663;28;20059;-74
2021/11/07 13:53:35;;;;;;;14.05;4.47;;;11.10;99.90;;;;;;5073380;28;20438;-80
2021/11/07 13:56:05;;;;;;;19.70;4.07;;;11.10;99.90;;;;;;5073455;28;20028;-74
2021/11/07 13:58:33;;;;;;;17.33;3.80;;;11.10;99.90;;;;;;5073743;28;20511;-72
2021/11/07 14:01:03;;;;;;;13.93;4.10;;;11.10;99.90;;;;;;5072734;28;20056;-72
2021/11/07 14:03:29;;;;;;;15.90;3.38;;;11.00;99.90;;;;;;5055481;28;20494;-76
2021/11/07 14:06:24;;;;;;;21.70;4.35;;;10.70;99.90;;;;;;5073473;28;20104;-80
2021/11/07 14:09:03;;;;;;;13.40;2.97;;;10.30;99.90;;;;;;5072645;28;20070;-74
2021/11/07 14:11:31;;;;;;;11.18;2.58;;;9.80;99.90;;;;;;5073515;28;20029;-75
2021/11/07 14:14:01;;;;;;;13.43;3.85;;;9.60;99.90;;;;;;5055216;28;20429;-73
2021/11/07 14:16:31;;;;;;;11.45;3.45;;;9.40;99.90;;;;;;5055524;28;20021;-75
2021/11/07 14:18:58;;;;;;;16.83;6.03;;;9.20;99.90;;;;;;5073201;28;20047;-74
2021/11/07 14:21:26;;;;;;;16.92;7.22;;;9.10;99.90;;;;;;5072773;28;20103;-74
2021/11/07 14:24:04;;;;;;;19.50;9.63;;;9.00;99.90;;;;;;5055441;28;20488;-74
2021/11/07 14:31:58;;;;;;;22.95;7.82;;;9.00;99.90;;;;;;5073074;28;20086;-75
2021/11/07 14:34:41;;;;;;;18.83;6.25;;;9.00;99.90;;;;;;5073235;28;20420;-74
2021/11/07 14:39:57;;;;;;;;;;;9.10;99.90;;;;;;5073490;28;20025;-73
2021/11/07 14:42:42;;;;;;;19.42;7.22;;;9.00;99.90;;;;;;5072283;28;19916;-74
2021/11/07 14:48:16;;;;;;;14.40;4.28;;;9.20;99.90;;;;;;5072895;28;20040;-74
2021/11/07 15:05:28;;;;;;;44.75;23.23;;;9.40;99.90;;;;;;5071799;28;20127;-74
2021/11/07 15:08:20;;;;;;;51.28;24.13;;;9.40;99.90;;;;;;5072486;28;20392;-74
2021/11/07 15:10:58;;;;;;;38.38;17.88;;;9.40;99.90;;;;;;5071862;28;20027;-73
2021/11/07 15:13:33;;;;;;;28.05;10.75;;;9.40;99.90;;;;;;5072495;28;20043;-73
2021/11/07 15:18:46;;;;;;;14.70;4.70;;;9.40;99.90;;;;;;5071501;28;20028;-73
2021/11/07 15:23:59;;;;;;;15.85;5.95;;;9.40;99.90;;;;;;5072136;28;20032;-72
2021/11/07 15:26:43;;;;;;;20.25;5.72;;;9.40;99.90;;;;;;5053630;28;20469;-73
2021/11/07 15:29:15;;;;;;;15.18;5.43;;;9.30;99.90;;;;;;5072125;28;20024;-74
2021/11/07 15:31:41;;;;;;;16.67;4.60;;;9.20;99.90;;;;;;5053354;28;20510;-72
2021/11/07 15:34:10;;;;;;;15.35;5.57;;;9.20;99.90;;;;;;5072133;28;20063;-72